sensor_id;sensor_type;location;lat;lon;timestamp;P1;durP1;ratioP1;P2;durP2;ratioP2
16642;SDS011;8435;52.184;5.406;2023-09-18T00:00:53;15.80;;;14.30;;
16642;SDS011;8435;52.184;5.406;2023-09-18T00:03:21;14.65;;;13.45;;
16642;SDS011;8435;52.184;5.406;2023-09-18T00:05:49;15.25;;;13.85;;
16642;SDS011;8435;52.184;5.406;2023-09-18T00:08:17;15.45;;;14.05;;
16642;SDS011;8435;52.184;5.406;2023-09-18T00:10:46;15.38;;;13.98;;
16642;SDS011;8435;52.184;5.406;2023-09-18T00:13:14;15.02;;;13.80;;
16642;SDS011;8435;52.184;5.406;2023-09-18T00:15:42;15.20;;;14.00;;
16642;SDS011;8435;52.184;5.406;2023-09-18T00:18:09;15.75;;;14.38;;
16642;SDS011;8435;52.184;5.406;2023-09-18T00:20:36;14.52;;;13.40;;
16642;SDS011;8435;52.184;5.406;2023-09-18T00:23:03;14.52;;;13.25;;
16642;SDS011;8435;52.184;5.406;2023-09-18T00:25:30;15.63;;;14.32;;
16642;SDS011;8435;52.184;5.406;2023-09-18T00:27:57;13.95;;;12.75;;
16642;SDS011;8435;52.184;5.406;2023-09-18T00:30:24;16.33;;;14.82;;
16642;SDS011;8435;52.184;5.406;2023-09-18T00:33:02;16.10;;;14.68;;
16642;SDS011;8435;52.184;5.406;2023-09-18T00:35:29;16.13;;;14.75;;
16642;SDS011;8435;52.184;5.406;2023-09-18T00:37:56;16.10;;;14.70;;
16642;SDS011;8435;52.184;5.406;2023-09-18T00:40:23;15.35;;;14.02;;
16642;SDS011;8435;52.184;5.406;2023-09-18T00:42:49;15.55;;;14.05;;
16642;SDS011;8435;52.184;5.406;2023-09-18T00:45:16;14.45;;;13.25;;
16642;SDS011;8435;52.184;5.406;2023-09-18T00:47:43;15.75;;;14.40;;
16642;SDS011;8435;52.184;5.406;2023-09-18T00:50:12;15.60;;;14.10;;
16642;SDS011;8435;52.184;5.406;2023-09-18T00:52:40;14.98;;;13.50;;
16642;SDS011;8435;52.184;5.406;2023-09-18T00:55:08;15.35;;;14.07;;
16642;SDS011;8435;52.184;5.406;2023-09-18T00:57:36;14.50;;;13.18;;
16642;SDS011;8435;52.184;5.406;2023-09-18T01:00:05;15.55;;;14.15;;
16642;SDS011;8435;52.184;5.406;2023-09-18T01:02:34;14.98;;;13.68;;
16642;SDS011;8435;52.184;5.406;2023-09-18T01:05:00;15.68;;;14.07;;
16642;SDS011;8435;52.184;5.406;2023-09-18T01:07:29;14.93;;;13.73;;
16642;SDS011;8435;52.184;5.406;2023-09-18T01:09:55;14.73;;;13.43;;
16642;SDS011;8435;52.184;5.406;2023-09-18T01:12:23;16.98;;;15.40;;
16642;SDS011;8435;52.184;5.406;2023-09-18T01:15:01;15.57;;;14.38;;
16642;SDS011;8435;52.184;5.406;2023-09-18T01:17:34;14.68;;;13.38;;
16642;SDS011;8435;52.184;5.406;2023-09-18T01:20:03;14.90;;;13.57;;
16642;SDS011;8435;52.184;5.406;2023-09-18T01:22:33;14.63;;;13.38;;
16642;SDS011;8435;52.184;5.406;2023-09-18T01:24:59;13.93;;;12.82;;
16642;SDS011;8435;52.184;5.406;2023-09-18T01:27:29;15.35;;;13.77;;
16642;SDS011;8435;52.184;5.406;2023-09-18T01:29:56;14.02;;;12.82;;
16642;SDS011;8435;52.184;5.406;2023-09-18T01:32:23;15.27;;;13.88;;
16642;SDS011;8435;52.184;5.406;2023-09-18T01:34:53;14.93;;;13.73;;
16642;SDS011;8435;52.184;5.406;2023-09-18T01:37:22;14.40;;;13.20;;
16642;SDS011;8435;52.184;5.406;2023-09-18T01:39:51;15.27;;;13.88;;
16642;SDS011;8435;52.184;5.406;2023-09-18T01:42:18;14.98;;;13.70;;
16642;SDS011;8435;52.184;5.406;2023-09-18T01:44:46;15.15;;;13.88;;
16642;SDS011;8435;52.184;5.406;2023-09-18T01:47:14;15.60;;;14.20;;
16642;SDS011;8435;52.184;5.406;2023-09-18T01:49:45;16.17;;;14.85;;
16642;SDS011;8435;52.184;5.406;2023-09-18T01:52:12;15.05;;;13.60;;
16642;SDS011;8435;52.184;5.406;2023-09-18T01:54:39;15.48;;;14.07;;
16642;SDS011;8435;52.184;5.406;2023-09-18T01:57:07;14.98;;;13.68;;
16642;SDS011;8435;52.184;5.406;2023-09-18T01:59:34;14.85;;;13.25;;
16642;SDS011;8435;52.184;5.406;2023-09-18T02:02:01;16.80;;;14.20;;
16642;SDS011;8435;52.184;5.406;2023-09-18T02:04:32;14.32;;;13.13;;
16642;SDS011;8435;52.184;5.406;2023-09-18T02:06:59;14.52;;;13.13;;
16642;SDS011;8435;52.184;5.406;2023-09-18T02:09:26;15.52;;;14.18;;
16642;SDS011;8435;52.184;5.406;2023-09-18T02:11:53;15.27;;;13.93;;
16642;SDS011;8435;52.184;5.406;2023-09-18T02:14:21;15.75;;;14.30;;
16642;SDS011;8435;52.184;5.406;2023-09-18T02:16:48;15.38;;;14.00;;
16642;SDS011;8435;52.184;5.406;2023-09-18T02:19:16;16.77;;;15.38;;
16642;SDS011;8435;52.184;5.406;2023-09-18T02:21:45;16.70;;;15.23;;
16642;SDS011;8435;52.184;5.406;2023-09-18T02:24:14;17.20;;;15.63;;
16642;SDS011;8435;52.184;5.406;2023-09-18T02:26:40;17.33;;;15.82;;
16642;SDS011;8435;52.184;5.406;2023-09-18T02:29:08;16.73;;;15.05;;
16642;SDS011;8435;52.184;5.406;2023-09-18T02:31:37;15.25;;;13.98;;
16642;SDS011;8435;52.184;5.406;2023-09-18T02:34:07;15.25;;;14.00;;
16642;SDS011;8435;52.184;5.406;2023-09-18T02:36:34;15.30;;;13.80;;
16642;SDS011;8435;52.184;5.406;2023-09-18T02:39:01;15.65;;;14.20;;
16642;SDS011;8435;52.184;5.406;2023-09-18T02:41:28;16.85;;;15.35;;
16642;SDS011;8435;52.184;5.406;2023-09-18T02:43:55;16.40;;;14.88;;
16642;SDS011;8435;52.184;5.406;2023-09-18T02:46:24;17.75;;;16.15;;
16642;SDS011;8435;52.184;5.406;2023-09-18T02:48:53;16.02;;;14.60;;
16642;SDS011;8435;52.184;5.406;2023-09-18T02:51:19;15.65;;;14.25;;
16642;SDS011;8435;52.184;5.406;2023-09-18T02:53:49;15.07;;;13.88;;
16642;SDS011;8435;52.184;5.406;2023-09-18T02:56:16;15.25;;;14.00;;
16642;SDS011;8435;52.184;5.406;2023-09-18T02:58:43;17.02;;;15.35;;
16642;SDS011;8435;52.184;5.406;2023-09-18T03:01:13;16.85;;;15.45;;
16642;SDS011;8435;52.184;5.406;2023-09-18T03:03:40;17.15;;;15.65;;
16642;SDS011;8435;52.184;5.406;2023-09-18T03:06:08;15.73;;;14.38;;
16642;SDS011;8435;52.184;5.406;2023-09-18T03:08:35;17.25;;;15.52;;
16642;SDS011;8435;52.184;5.406;2023-09-18T03:11:02;16.70;;;15.27;;
16642;SDS011;8435;52.184;5.406;2023-09-18T03:13:36;15.85;;;14.52;;
16642;SDS011;8435;52.184;5.406;2023-09-18T03:16:03;15.55;;;14.25;;
16642;SDS011;8435;52.184;5.406;2023-09-18T03:18:30;15.48;;;13.45;;
16642;SDS011;8435;52.184;5.406;2023-09-18T03:20:57;15.60;;;14.10;;
16642;SDS011;8435;52.184;5.406;2023-09-18T03:23:25;15.48;;;14.18;;
16642;SDS011;8435;52.184;5.406;2023-09-18T03:25:54;17.02;;;15.48;;
16642;SDS011;8435;52.184;5.406;2023-09-18T03:28:21;17.27;;;15.75;;
16642;SDS011;8435;52.184;5.406;2023-09-18T03:30:57;18.02;;;16.52;;
16642;SDS011;8435;52.184;5.406;2023-09-18T03:33:30;17.73;;;16.13;;
16642;SDS011;8435;52.184;5.406;2023-09-18T03:35:57;17.42;;;15.88;;
16642;SDS011;8435;52.184;5.406;2023-09-18T03:38:25;17.15;;;15.55;;
16642;SDS011;8435;52.184;5.406;2023-09-18T03:40:52;17.17;;;15.50;;
16642;SDS011;8435;52.184;5.406;2023-09-18T03:43:19;17.38;;;15.68;;
16642;SDS011;8435;52.184;5.406;2023-09-18T03:45:46;17.33;;;15.73;;
16642;SDS011;8435;52.184;5.406;2023-09-18T03:48:13;16.80;;;15.20;;
16642;SDS011;8435;52.184;5.406;2023-09-18T03:50:40;17.95;;;16.38;;
16642;SDS011;8435;52.184;5.406;2023-09-18T03:53:09;18.17;;;16.35;;
16642;SDS011;8435;52.184;5.406;2023-09-18T03:55:37;17.17;;;15.65;;
16642;SDS011;8435;52.184;5.406;2023-09-18T03:58:05;17.85;;;16.15;;
16642;SDS011;8435;52.184;5.406;2023-09-18T04:00:32;17.77;;;16.02;;
16642;SDS011;8435;52.184;5.406;2023-09-18T04:02:59;18.02;;;16.13;;
16642;SDS011;8435;52.184;5.406;2023-09-18T04:05:26;17.17;;;15.57;;
16642;SDS011;8435;52.184;5.406;2023-09-18T04:07:53;17.00;;;15.50;;
16642;SDS011;8435;52.184;5.406;2023-09-18T04:10:20;17.55;;;15.95;;
16642;SDS011;8435;52.184;5.406;2023-09-18T04:12:49;16.98;;;15.48;;
16642;SDS011;8435;52.184;5.406;2023-09-18T04:15:16;16.40;;;14.85;;
16642;SDS011;8435;52.184;5.406;2023-09-18T04:17:43;17.95;;;16.35;;
16642;SDS011;8435;52.184;5.406;2023-09-18T04:20:10;15.57;;;14.05;;
16642;SDS011;8435;52.184;5.406;2023-09-18T04:22:42;16.08;;;14.65;;
16642;SDS011;8435;52.184;5.406;2023-09-18T04:25:10;16.27;;;14.77;;
16642;SDS011;8435;52.184;5.406;2023-09-18T04:27:37;15.20;;;13.80;;
16642;SDS011;8435;52.184;5.406;2023-09-18T04:30:08;14.95;;;13.70;;
16642;SDS011;8435;52.184;5.406;2023-09-18T04:32:36;14.88;;;13.45;;
16642;SDS011;8435;52.184;5.406;2023-09-18T04:35:04;14.05;;;12.82;;
16642;SDS011;8435;52.184;5.406;2023-09-18T04:37:33;13.35;;;12.25;;
16642;SDS011;8435;52.184;5.406;2023-09-18T04:40:06;13.38;;;12.07;;
16642;SDS011;8435;52.184;5.406;2023-09-18T04:42:35;13.73;;;12.48;;
16642;SDS011;8435;52.184;5.406;2023-09-18T04:45:02;14.95;;;13.45;;
16642;SDS011;8435;52.184;5.406;2023-09-18T04:47:31;14.43;;;13.13;;
16642;SDS011;8435;52.184;5.406;2023-09-18T04:49:58;13.35;;;12.25;;
16642;SDS011;8435;52.184;5.406;2023-09-18T04:52:25;13.38;;;12.18;;
16642;SDS011;8435;52.184;5.406;2023-09-18T04:54:52;14.18;;;12.88;;
16642;SDS011;8435;52.184;5.406;2023-09-18T04:57:19;14.45;;;13.05;;
16642;SDS011;8435;52.184;5.406;2023-09-18T04:59:47;14.00;;;12.80;;
16642;SDS011;8435;52.184;5.406;2023-09-18T05:02:14;13.07;;;11.88;;
16642;SDS011;8435;52.184;5.406;2023-09-18T05:04:42;13.68;;;12.35;;
16642;SDS011;8435;52.184;5.406;2023-09-18T05:07:09;13.50;;;12.25;;
16642;SDS011;8435;52.184;5.406;2023-09-18T05:09:36;15.27;;;12.65;;
16642;SDS011;8435;52.184;5.406;2023-09-18T05:12:04;14.18;;;12.90;;
16642;SDS011;8435;52.184;5.406;2023-09-18T05:14:40;14.02;;;12.55;;
16642;SDS011;8435;52.184;5.406;2023-09-18T05:17:09;15.05;;;13.75;;
16642;SDS011;8435;52.184;5.406;2023-09-18T05:19:37;14.52;;;13.10;;
16642;SDS011;8435;52.184;5.406;2023-09-18T05:22:05;16.55;;;13.38;;
16642;SDS011;8435;52.184;5.406;2023-09-18T05:24:32;13.50;;;12.27;;
16642;SDS011;8435;52.184;5.406;2023-09-18T05:27:00;11.45;;;10.45;;
16642;SDS011;8435;52.184;5.406;2023-09-18T05:29:27;12.52;;;11.30;;
16642;SDS011;8435;52.184;5.406;2023-09-18T05:31:54;11.65;;;10.48;;
16642;SDS011;8435;52.184;5.406;2023-09-18T05:34:21;10.63;;;9.57;;
16642;SDS011;8435;52.184;5.406;2023-09-18T05:36:48;10.73;;;9.75;;
16642;SDS011;8435;52.184;5.406;2023-09-18T05:39:16;9.93;;;8.95;;
16642;SDS011;8435;52.184;5.406;2023-09-18T05:41:43;14.63;;;13.35;;
16642;SDS011;8435;52.184;5.406;2023-09-18T05:44:10;19.17;;;17.48;;
16642;SDS011;8435;52.184;5.406;2023-09-18T05:46:37;23.27;;;21.17;;
16642;SDS011;8435;52.184;5.406;2023-09-18T05:49:04;14.70;;;13.35;;
16642;SDS011;8435;52.184;5.406;2023-09-18T05:51:30;13.75;;;12.50;;
16642;SDS011;8435;52.184;5.406;2023-09-18T05:53:57;17.23;;;15.63;;
16642;SDS011;8435;52.184;5.406;2023-09-18T05:56:26;10.68;;;9.65;;
16642;SDS011;8435;52.184;5.406;2023-09-18T05:58:53;9.95;;;8.45;;
16642;SDS011;8435;52.184;5.406;2023-09-18T06:01:20;7.93;;;7.22;;
16642;SDS011;8435;52.184;5.406;2023-09-18T06:03:47;9.23;;;7.25;;
16642;SDS011;8435;52.184;5.406;2023-09-18T06:06:14;7.35;;;6.78;;
16642;SDS011;8435;52.184;5.406;2023-09-18T06:08:40;8.55;;;7.60;;
16642;SDS011;8435;52.184;5.406;2023-09-18T06:11:07;9.68;;;7.45;;
16642;SDS011;8435;52.184;5.406;2023-09-18T06:13:36;6.95;;;6.35;;
16642;SDS011;8435;52.184;5.406;2023-09-18T06:16:04;6.57;;;5.97;;
16642;SDS011;8435;52.184;5.406;2023-09-18T06:18:33;15.02;;;13.75;;
16642;SDS011;8435;52.184;5.406;2023-09-18T06:21:00;11.70;;;10.70;;
16642;SDS011;8435;52.184;5.406;2023-09-18T06:23:27;8.32;;;7.63;;
16642;SDS011;8435;52.184;5.406;2023-09-18T06:25:57;7.70;;;7.00;;
16642;SDS011;8435;52.184;5.406;2023-09-18T06:28:24;7.75;;;7.05;;
16642;SDS011;8435;52.184;5.406;2023-09-18T06:30:52;8.27;;;7.57;;
16642;SDS011;8435;52.184;5.406;2023-09-18T06:33:20;7.50;;;6.85;;
16642;SDS011;8435;52.184;5.406;2023-09-18T06:35:47;7.72;;;7.10;;
16642;SDS011;8435;52.184;5.406;2023-09-18T06:38:13;7.95;;;7.22;;
16642;SDS011;8435;52.184;5.406;2023-09-18T06:40:40;12.98;;;11.77;;
16642;SDS011;8435;52.184;5.406;2023-09-18T06:43:07;9.95;;;8.63;;
16642;SDS011;8435;52.184;5.406;2023-09-18T06:45:36;9.32;;;8.48;;
16642;SDS011;8435;52.184;5.406;2023-09-18T06:48:05;7.93;;;7.22;;
16642;SDS011;8435;52.184;5.406;2023-09-18T06:50:32;7.93;;;7.22;;
16642;SDS011;8435;52.184;5.406;2023-09-18T06:52:59;9.68;;;8.88;;
16642;SDS011;8435;52.184;5.406;2023-09-18T06:55:26;9.23;;;8.52;;
16642;SDS011;8435;52.184;5.406;2023-09-18T06:57:52;9.38;;;8.48;;
16642;SDS011;8435;52.184;5.406;2023-09-18T07:00:19;8.32;;;7.68;;
16642;SDS011;8435;52.184;5.406;2023-09-18T07:02:47;8.63;;;7.82;;
16642;SDS011;8435;52.184;5.406;2023-09-18T07:05:15;8.38;;;7.50;;
16642;SDS011;8435;52.184;5.406;2023-09-18T07:07:42;9.70;;;8.80;;
16642;SDS011;8435;52.184;5.406;2023-09-18T07:10:09;8.02;;;7.20;;
16642;SDS011;8435;52.184;5.406;2023-09-18T07:12:36;7.22;;;6.53;;
16642;SDS011;8435;52.184;5.406;2023-09-18T07:15:03;7.70;;;7.00;;
16642;SDS011;8435;52.184;5.406;2023-09-18T07:17:31;8.07;;;7.38;;
16642;SDS011;8435;52.184;5.406;2023-09-18T07:19:58;7.85;;;7.15;;
16642;SDS011;8435;52.184;5.406;2023-09-18T07:22:26;9.95;;;9.00;;
16642;SDS011;8435;52.184;5.406;2023-09-18T07:24:53;10.57;;;9.63;;
16642;SDS011;8435;52.184;5.406;2023-09-18T07:27:20;8.43;;;7.72;;
16642;SDS011;8435;52.184;5.406;2023-09-18T07:29:55;9.27;;;8.45;;
16642;SDS011;8435;52.184;5.406;2023-09-18T07:32:22;9.18;;;8.38;;
16642;SDS011;8435;52.184;5.406;2023-09-18T07:34:53;10.07;;;9.07;;
16642;SDS011;8435;52.184;5.406;2023-09-18T07:37:20;9.70;;;8.88;;
16642;SDS011;8435;52.184;5.406;2023-09-18T07:39:48;9.20;;;8.50;;
16642;SDS011;8435;52.184;5.406;2023-09-18T07:42:17;9.27;;;8.55;;
16642;SDS011;8435;52.184;5.406;2023-09-18T07:44:44;9.40;;;8.60;;
16642;SDS011;8435;52.184;5.406;2023-09-18T07:47:11;9.02;;;8.13;;
16642;SDS011;8435;52.184;5.406;2023-09-18T07:49:38;10.45;;;9.15;;
16642;SDS011;8435;52.184;5.406;2023-09-18T07:52:05;9.13;;;8.38;;
16642;SDS011;8435;52.184;5.406;2023-09-18T07:54:31;9.23;;;8.43;;
16642;SDS011;8435;52.184;5.406;2023-09-18T07:57:00;8.95;;;8.20;;
16642;SDS011;8435;52.184;5.406;2023-09-18T07:59:26;8.45;;;7.65;;
16642;SDS011;8435;52.184;5.406;2023-09-18T08:01:54;8.68;;;7.93;;
16642;SDS011;8435;52.184;5.406;2023-09-18T08:04:21;7.57;;;6.90;;
16642;SDS011;8435;52.184;5.406;2023-09-18T08:06:48;8.48;;;7.68;;
16642;SDS011;8435;52.184;5.406;2023-09-18T08:09:17;8.30;;;7.60;;
16642;SDS011;8435;52.184;5.406;2023-09-18T08:11:47;8.05;;;7.35;;
16642;SDS011;8435;52.184;5.406;2023-09-18T08:14:16;8.38;;;7.60;;
16642;SDS011;8435;52.184;5.406;2023-09-18T08:16:43;9.55;;;8.30;;
16642;SDS011;8435;52.184;5.406;2023-09-18T08:19:09;9.93;;;9.02;;
16642;SDS011;8435;52.184;5.406;2023-09-18T08:21:36;8.93;;;8.07;;
16642;SDS011;8435;52.184;5.406;2023-09-18T08:24:03;8.57;;;7.78;;
16642;SDS011;8435;52.184;5.406;2023-09-18T08:26:30;6.65;;;6.18;;
16642;SDS011;8435;52.184;5.406;2023-09-18T08:28:59;6.47;;;5.78;;
16642;SDS011;8435;52.184;5.406;2023-09-18T08:31:29;7.25;;;6.65;;
16642;SDS011;8435;52.184;5.406;2023-09-18T08:33:56;11.23;;;10.20;;
16642;SDS011;8435;52.184;5.406;2023-09-18T08:36:24;7.80;;;7.10;;
16642;SDS011;8435;52.184;5.406;2023-09-18T08:38:51;6.18;;;5.68;;
16642;SDS011;8435;52.184;5.406;2023-09-18T08:41:18;6.22;;;5.63;;
16642;SDS011;8435;52.184;5.406;2023-09-18T08:43:51;5.18;;;4.70;;
16642;SDS011;8435;52.184;5.406;2023-09-18T08:46:21;5.88;;;5.35;;
16642;SDS011;8435;52.184;5.406;2023-09-18T08:48:49;6.03;;;5.53;;
16642;SDS011;8435;52.184;5.406;2023-09-18T08:51:17;4.97;;;4.63;;
16642;SDS011;8435;52.184;5.406;2023-09-18T08:53:44;5.20;;;4.70;;
16642;SDS011;8435;52.184;5.406;2023-09-18T08:56:15;4.55;;;4.25;;
16642;SDS011;8435;52.184;5.406;2023-09-18T08:58:44;5.15;;;4.63;;
16642;SDS011;8435;52.184;5.406;2023-09-18T09:01:11;5.20;;;4.75;;
16642;SDS011;8435;52.184;5.406;2023-09-18T09:03:38;5.30;;;4.90;;
16642;SDS011;8435;52.184;5.406;2023-09-18T09:06:08;5.32;;;4.63;;
16642;SDS011;8435;52.184;5.406;2023-09-18T09:08:36;5.13;;;4.65;;
16642;SDS011;8435;52.184;5.406;2023-09-18T09:11:02;4.82;;;4.30;;
16642;SDS011;8435;52.184;5.406;2023-09-18T09:13:29;4.35;;;3.95;;
16642;SDS011;8435;52.184;5.406;2023-09-18T09:15:57;4.28;;;3.92;;
16642;SDS011;8435;52.184;5.406;2023-09-18T09:18:26;4.55;;;4.15;;
16642;SDS011;8435;52.184;5.406;2023-09-18T09:20:53;4.80;;;4.50;;
16642;SDS011;8435;52.184;5.406;2023-09-18T09:23:25;5.00;;;4.20;;
16642;SDS011;8435;52.184;5.406;2023-09-18T09:25:53;4.95;;;3.90;;
16642;SDS011;8435;52.184;5.406;2023-09-18T09:28:29;4.57;;;4.15;;
16642;SDS011;8435;52.184;5.406;2023-09-18T09:31:01;5.97;;;3.97;;
16642;SDS011;8435;52.184;5.406;2023-09-18T09:33:32;4.75;;;3.70;;
16642;SDS011;8435;52.184;5.406;2023-09-18T09:35:58;4.32;;;3.97;;
16642;SDS011;8435;52.184;5.406;2023-09-18T09:38:29;4.18;;;3.38;;
16642;SDS011;8435;52.184;5.406;2023-09-18T09:41:01;3.25;;;3.05;;
16642;SDS011;8435;52.184;5.406;2023-09-18T09:43:32;3.80;;;3.50;;
16642;SDS011;8435;52.184;5.406;2023-09-18T09:45:59;4.47;;;3.20;;
16642;SDS011;8435;52.184;5.406;2023-09-18T09:48:27;3.05;;;2.85;;
16642;SDS011;8435;52.184;5.406;2023-09-18T09:50:57;3.58;;;3.28;;
16642;SDS011;8435;52.184;5.406;2023-09-18T09:53:45;4.45;;;4.03;;
16642;SDS011;8435;52.184;5.406;2023-09-18T09:56:15;3.40;;;3.20;;
16642;SDS011;8435;52.184;5.406;2023-09-18T09:58:44;4.05;;;3.75;;
16642;SDS011;8435;52.184;5.406;2023-09-18T10:01:13;4.38;;;3.97;;
16642;SDS011;8435;52.184;5.406;2023-09-18T10:03:42;4.32;;;4.03;;
16642;SDS011;8435;52.184;5.406;2023-09-18T10:06:10;4.25;;;3.95;;
16642;SDS011;8435;52.184;5.406;2023-09-18T10:08:38;5.30;;;4.90;;
16642;SDS011;8435;52.184;5.406;2023-09-18T10:11:08;5.22;;;4.82;;
16642;SDS011;8435;52.184;5.406;2023-09-18T10:13:42;6.07;;;5.57;;
16642;SDS011;8435;52.184;5.406;2023-09-18T10:16:15;6.10;;;5.70;;
16642;SDS011;8435;52.184;5.406;2023-09-18T10:18:52;6.50;;;6.13;;
16642;SDS011;8435;52.184;5.406;2023-09-18T10:21:27;6.68;;;6.25;;
16642;SDS011;8435;52.184;5.406;2023-09-18T10:24:02;6.93;;;6.32;;
16642;SDS011;8435;52.184;5.406;2023-09-18T10:26:39;5.43;;;5.13;;
16642;SDS011;8435;52.184;5.406;2023-09-18T10:29:15;6.60;;;6.10;;
16642;SDS011;8435;52.184;5.406;2023-09-18T10:31:43;5.47;;;5.07;;
16642;SDS011;8435;52.184;5.406;2023-09-18T10:34:12;5.95;;;5.53;;
16642;SDS011;8435;52.184;5.406;2023-09-18T10:36:39;6.60;;;6.15;;
16642;SDS011;8435;52.184;5.406;2023-09-18T10:39:09;5.85;;;5.45;;
16642;SDS011;8435;52.184;5.406;2023-09-18T10:41:39;5.30;;;4.90;;
16642;SDS011;8435;52.184;5.406;2023-09-18T10:44:07;5.18;;;4.88;;
16642;SDS011;8435;52.184;5.406;2023-09-18T10:46:34;5.45;;;4.95;;
16642;SDS011;8435;52.184;5.406;2023-09-18T10:49:02;5.82;;;5.38;;
16642;SDS011;8435;52.184;5.406;2023-09-18T10:51:30;5.90;;;5.40;;
16642;SDS011;8435;52.184;5.406;2023-09-18T10:53:58;6.60;;;6.10;;
16642;SDS011;8435;52.184;5.406;2023-09-18T10:56:28;6.10;;;5.70;;
16642;SDS011;8435;52.184;5.406;2023-09-18T10:58:59;5.38;;;4.97;;
16642;SDS011;8435;52.184;5.406;2023-09-18T11:01:27;7.50;;;5.25;;
16642;SDS011;8435;52.184;5.406;2023-09-18T11:03:57;5.55;;;5.15;;
16642;SDS011;8435;52.184;5.406;2023-09-18T11:06:29;5.90;;;5.50;;
16642;SDS011;8435;52.184;5.406;2023-09-18T11:09:01;5.35;;;4.95;;
16642;SDS011;8435;52.184;5.406;2023-09-18T11:11:30;5.35;;;4.85;;
16642;SDS011;8435;52.184;5.406;2023-09-18T11:14:01;5.07;;;4.68;;
16642;SDS011;8435;52.184;5.406;2023-09-18T11:16:33;5.57;;;5.07;;
16642;SDS011;8435;52.184;5.406;2023-09-18T11:19:10;9.07;;;5.53;;
16642;SDS011;8435;52.184;5.406;2023-09-18T11:21:39;5.75;;;4.95;;
16642;SDS011;8435;52.184;5.406;2023-09-18T11:24:06;4.60;;;4.30;;
16642;SDS011;8435;52.184;5.406;2023-09-18T11:26:36;4.90;;;4.50;;
16642;SDS011;8435;52.184;5.406;2023-09-18T11:29:13;4.85;;;4.55;;
16642;SDS011;8435;52.184;5.406;2023-09-18T11:31:42;4.93;;;4.50;;
16642;SDS011;8435;52.184;5.406;2023-09-18T11:34:11;4.65;;;4.25;;
16642;SDS011;8435;52.184;5.406;2023-09-18T11:36:38;3.90;;;3.60;;
16642;SDS011;8435;52.184;5.406;2023-09-18T11:39:07;4.50;;;4.10;;
16642;SDS011;8435;52.184;5.406;2023-09-18T11:41:34;4.03;;;3.70;;
16642;SDS011;8435;52.184;5.406;2023-09-18T11:47:06;4.20;;;3.90;;
16642;SDS011;8435;52.184;5.406;2023-09-18T11:49:33;4.55;;;4.15;;
16642;SDS011;8435;52.184;5.406;2023-09-18T11:52:01;4.70;;;3.92;;
16642;SDS011;8435;52.184;5.406;2023-09-18T11:54:29;4.55;;;3.80;;
16642;SDS011;8435;52.184;5.406;2023-09-18T11:57:02;4.13;;;3.72;;
16642;SDS011;8435;52.184;5.406;2023-09-18T11:59:39;4.65;;;3.63;;
16642;SDS011;8435;52.184;5.406;2023-09-18T12:02:08;3.75;;;3.45;;
16642;SDS011;8435;52.184;5.406;2023-09-18T12:04:36;5.45;;;4.03;;
16642;SDS011;8435;52.184;5.406;2023-09-18T12:07:04;4.53;;;4.15;;
16642;SDS011;8435;52.184;5.406;2023-09-18T12:09:31;5.43;;;4.97;;
16642;SDS011;8435;52.184;5.406;2023-09-18T12:11:59;5.53;;;5.13;;
16642;SDS011;8435;52.184;5.406;2023-09-18T12:14:31;5.70;;;5.30;;
16642;SDS011;8435;52.184;5.406;2023-09-18T12:17:00;6.20;;;5.57;;
16642;SDS011;8435;52.184;5.406;2023-09-18T12:19:28;6.30;;;5.90;;
16642;SDS011;8435;52.184;5.406;2023-09-18T12:21:55;6.28;;;5.68;;
16642;SDS011;8435;52.184;5.406;2023-09-18T12:24:23;6.00;;;5.50;;
16642;SDS011;8435;52.184;5.406;2023-09-18T12:26:51;5.93;;;5.30;;
16642;SDS011;8435;52.184;5.406;2023-09-18T12:29:21;5.50;;;5.00;;
16642;SDS011;8435;52.184;5.406;2023-09-18T12:31:48;4.55;;;4.15;;
16642;SDS011;8435;52.184;5.406;2023-09-18T12:34:18;5.30;;;4.70;;
16642;SDS011;8435;52.184;5.406;2023-09-18T12:36:47;5.15;;;4.72;;
16642;SDS011;8435;52.184;5.406;2023-09-18T12:39:14;4.38;;;3.97;;
16642;SDS011;8435;52.184;5.406;2023-09-18T12:41:46;4.72;;;4.32;;
16642;SDS011;8435;52.184;5.406;2023-09-18T12:44:14;4.18;;;3.80;;
16642;SDS011;8435;52.184;5.406;2023-09-18T12:46:41;5.13;;;3.80;;
16642;SDS011;8435;52.184;5.406;2023-09-18T12:49:16;3.70;;;3.40;;
16642;SDS011;8435;52.184;5.406;2023-09-18T12:51:57;4.03;;;3.70;;
16642;SDS011;8435;52.184;5.406;2023-09-18T12:54:38;4.63;;;4.00;;
16642;SDS011;8435;52.184;5.406;2023-09-18T12:57:07;4.30;;;4.00;;
16642;SDS011;8435;52.184;5.406;2023-09-18T12:59:35;5.43;;;4.93;;
16642;SDS011;8435;52.184;5.406;2023-09-18T13:02:03;7.72;;;7.13;;
16642;SDS011;8435;52.184;5.406;2023-09-18T13:04:32;7.68;;;5.95;;
16642;SDS011;8435;52.184;5.406;2023-09-18T13:07:05;5.57;;;5.18;;
16642;SDS011;8435;52.184;5.406;2023-09-18T13:09:34;4.95;;;4.55;;
16642;SDS011;8435;52.184;5.406;2023-09-18T13:12:02;4.70;;;4.30;;
16642;SDS011;8435;52.184;5.406;2023-09-18T13:14:30;4.90;;;4.40;;
16642;SDS011;8435;52.184;5.406;2023-09-18T13:17:19;6.68;;;4.65;;
16642;SDS011;8435;52.184;5.406;2023-09-18T13:19:50;5.70;;;5.20;;
16642;SDS011;8435;52.184;5.406;2023-09-18T13:22:21;5.60;;;5.20;;
16642;SDS011;8435;52.184;5.406;2023-09-18T13:24:54;5.00;;;4.60;;
16642;SDS011;8435;52.184;5.406;2023-09-18T13:27:22;18.67;;;16.95;;
16642;SDS011;8435;52.184;5.406;2023-09-18T13:29:49;9.07;;;8.27;;
16642;SDS011;8435;52.184;5.406;2023-09-18T13:32:17;5.78;;;5.28;;
16642;SDS011;8435;52.184;5.406;2023-09-18T13:34:44;5.25;;;4.85;;
16642;SDS011;8435;52.184;5.406;2023-09-18T13:37:13;4.57;;;3.95;;
16642;SDS011;8435;52.184;5.406;2023-09-18T13:39:42;5.72;;;3.95;;
16642;SDS011;8435;52.184;5.406;2023-09-18T13:42:10;3.65;;;3.45;;
16642;SDS011;8435;52.184;5.406;2023-09-18T13:44:40;3.60;;;3.30;;
16642;SDS011;8435;52.184;5.406;2023-09-18T13:47:07;3.80;;;3.42;;
16642;SDS011;8435;52.184;5.406;2023-09-18T13:49:33;4.10;;;3.13;;
16642;SDS011;8435;52.184;5.406;2023-09-18T13:52:00;3.60;;;3.30;;
16642;SDS011;8435;52.184;5.406;2023-09-18T13:54:30;3.63;;;3.33;;
16642;SDS011;8435;52.184;5.406;2023-09-18T13:56:56;3.22;;;3.03;;
16642;SDS011;8435;52.184;5.406;2023-09-18T13:59:23;3.88;;;2.88;;
16642;SDS011;8435;52.184;5.406;2023-09-18T14:01:50;3.13;;;2.90;;
16642;SDS011;8435;52.184;5.406;2023-09-18T14:04:17;3.17;;;2.97;;
16642;SDS011;8435;52.184;5.406;2023-09-18T14:06:44;2.72;;;2.50;;
16642;SDS011;8435;52.184;5.406;2023-09-18T14:09:13;4.10;;;3.08;;
16642;SDS011;8435;52.184;5.406;2023-09-18T14:11:43;2.55;;;2.38;;
16642;SDS011;8435;52.184;5.406;2023-09-18T14:14:10;2.85;;;2.60;;
16642;SDS011;8435;52.184;5.406;2023-09-18T14:16:37;2.78;;;2.58;;
16642;SDS011;8435;52.184;5.406;2023-09-18T14:19:04;3.35;;;2.25;;
16642;SDS011;8435;52.184;5.406;2023-09-18T14:21:31;2.25;;;2.05;;
16642;SDS011;8435;52.184;5.406;2023-09-18T14:23:58;2.53;;;2.10;;
16642;SDS011;8435;52.184;5.406;2023-09-18T14:26:24;2.40;;;2.17;;
16642;SDS011;8435;52.184;5.406;2023-09-18T14:28:52;2.10;;;2.00;;
16642;SDS011;8435;52.184;5.406;2023-09-18T14:31:22;2.78;;;1.98;;
16642;SDS011;8435;52.184;5.406;2023-09-18T14:33:50;2.28;;;2.05;;
16642;SDS011;8435;52.184;5.406;2023-09-18T14:36:16;2.13;;;2.03;;
16642;SDS011;8435;52.184;5.406;2023-09-18T14:38:43;2.40;;;2.30;;
16642;SDS011;8435;52.184;5.406;2023-09-18T14:41:11;2.35;;;2.03;;
16642;SDS011;8435;52.184;5.406;2023-09-18T14:43:38;2.30;;;2.10;;
16642;SDS011;8435;52.184;5.406;2023-09-18T14:46:06;2.38;;;2.17;;
16642;SDS011;8435;52.184;5.406;2023-09-18T14:48:33;2.22;;;2.03;;
16642;SDS011;8435;52.184;5.406;2023-09-18T14:51:00;2.42;;;2.22;;
16642;SDS011;8435;52.184;5.406;2023-09-18T14:53:27;2.28;;;2.08;;
16642;SDS011;8435;52.184;5.406;2023-09-18T14:55:54;2.35;;;2.15;;
16642;SDS011;8435;52.184;5.406;2023-09-18T14:58:22;3.40;;;2.20;;
16642;SDS011;8435;52.184;5.406;2023-09-18T15:00:49;2.08;;;1.95;;